createdAt,value
2018-06-12T00:00:28.333Z,0
2018-06-12T00:01:38.286Z,0
2018-06-12T00:02:48.019Z,0
2018-06-12T00:03:57.992Z,0
2018-06-12T00:05:08.190Z,0
2018-06-12T00:06:17.895Z,0
2018-06-12T00:07:27.866Z,0
2018-06-12T00:08:37.908Z,0
2018-06-12T00:09:47.617Z,0
2018-06-12T00:10:57.574Z,0
2018-06-12T00:12:07.553Z,0
2018-06-12T00:13:17.266Z,0
2018-06-12T00:14:26.971Z,0
2018-06-12T00:15:36.691Z,0
2018-06-12T00:16:46.655Z,0
2018-06-12T00:17:56.619Z,0
2018-06-12T00:19:06.330Z,0
2018-06-12T00:20:16.303Z,0
2018-06-12T00:21:26.023Z,0
2018-06-12T00:22:35.996Z,0
2018-06-12T00:23:45.961Z,0
2018-06-12T00:24:55.685Z,0
2018-06-12T00:26:05.649Z,0
2018-06-12T00:27:15.616Z,0
2018-06-12T00:28:25.381Z,0
2018-06-12T00:29:35.348Z,0
2018-06-12T00:30:45.062Z,0
2018-06-12T00:31:55.029Z,0
2018-06-12T00:33:04.221Z,0
2018-06-12T00:34:14.191Z,0
2018-06-12T00:35:24.163Z,0
2018-06-12T00:36:34.124Z,0
2018-06-12T00:37:44.140Z,0
2018-06-12T00:38:53.841Z,0
2018-06-12T00:40:03.813Z,0
2018-06-12T00:41:13.522Z,0
2018-06-12T00:42:23.500Z,0
2018-06-12T00:43:33.487Z,0
2018-06-12T00:44:42.967Z,0
2018-06-12T00:45:52.944Z,0
2018-06-12T00:47:02.909Z,0
2018-06-12T00:48:12.896Z,0
2018-06-12T00:49:22.881Z,0
2018-06-12T00:50:32.837Z,0
2018-06-12T00:51:42.806Z,0
2018-06-12T00:52:52.770Z,0
2018-06-12T00:54:02.497Z,0
2018-06-12T00:55:12.471Z,0
2018-06-12T00:56:22.461Z,0
2018-06-12T00:57:32.425Z,0
2018-06-12T00:58:42.399Z,0
2018-06-12T00:59:52.381Z,0
2018-06-12T01:01:02.150Z,0
2018-06-12T01:02:11.619Z,0
2018-06-12T01:03:21.581Z,0
2018-06-12T01:04:31.559Z,0
2018-06-12T01:05:41.538Z,0
2018-06-12T01:06:51.507Z,0
2018-06-12T01:08:01.482Z,0
2018-06-12T01:09:11.188Z,0
2018-06-12T01:10:21.159Z,0
2018-06-12T01:11:30.892Z,0
2018-06-12T01:12:40.612Z,0
2018-06-12T01:13:50.319Z,0
2018-06-12T01:15:00.276Z,0
2018-06-12T01:16:09.984Z,0
2018-06-12T01:17:19.693Z,0
2018-06-12T01:18:29.657Z,0
2018-06-12T01:19:39.115Z,0
2018-06-12T01:20:49.096Z,0
2018-06-12T01:21:59.065Z,0
2018-06-12T01:23:09.158Z,0
2018-06-12T01:24:19.135Z,0
2018-06-12T01:25:29.112Z,0
2018-06-12T01:26:38.811Z,0
2018-06-12T01:27:48.779Z,0
2018-06-12T01:28:58.739Z,0
2018-06-12T01:30:08.703Z,0
2018-06-12T01:31:18.412Z,0
2018-06-12T01:32:28.385Z,0
2018-06-12T01:33:38.359Z,0
2018-06-12T01:34:48.329Z,0
2018-06-12T01:35:58.033Z,0
2018-06-12T01:37:08.010Z,0
2018-06-12T01:38:17.980Z,0
2018-06-12T01:39:27.950Z,0
2018-06-12T01:40:37.665Z,0
2018-06-12T01:41:47.382Z,0
2018-06-12T01:42:57.360Z,0
2018-06-12T01:44:07.326Z,0
2018-06-12T01:45:17.310Z,0
2018-06-12T01:46:27.274Z,0
2018-06-12T01:47:37.239Z,0
2018-06-12T01:48:47.200Z,0
2018-06-12T01:49:56.913Z,0
2018-06-12T01:51:06.885Z,0
2018-06-12T01:52:16.852Z,0
2018-06-12T01:53:26.815Z,0
2018-06-12T01:54:36.795Z,0
2018-06-12T01:55:46.506Z,4
2018-06-12T01:56:56.477Z,4
2018-06-12T01:58:06.431Z,4
2018-06-12T01:59:16.393Z,0
2018-06-12T02:00:25.845Z,4
2018-06-12T02:01:35.815Z,4
2018-06-12T02:02:45.525Z,4
2018-06-12T02:03:55.239Z,4
2018-06-12T02:05:05.258Z,8
2018-06-12T02:06:15.260Z,4
2018-06-12T02:07:25.235Z,8
2018-06-12T02:08:34.944Z,8
2018-06-12T02:09:44.907Z,8
2018-06-12T02:10:54.879Z,8
2018-06-12T02:12:04.868Z,12
2018-06-12T02:13:14.593Z,12
2018-06-12T02:14:24.553Z,16
2018-06-12T02:15:34.513Z,16
2018-06-12T02:16:44.479Z,20
2018-06-12T02:17:54.178Z,24
2018-06-12T02:19:03.930Z,24
2018-06-12T02:20:13.909Z,28
2018-06-12T02:21:23.883Z,36
2018-06-12T02:22:33.845Z,40
2018-06-12T02:23:43.830Z,44
2018-06-12T02:24:53.815Z,52
2018-06-12T02:26:03.780Z,56
2018-06-12T02:27:13.744Z,64
2018-06-12T02:28:23.712Z,72
2018-06-12T02:29:33.524Z,84
2018-06-12T02:30:43.501Z,92
2018-06-12T02:31:53.205Z,100
2018-06-12T02:33:03.208Z,112
2018-06-12T02:34:12.925Z,124
2018-06-12T02:35:22.887Z,140
2018-06-12T02:36:32.856Z,152
2018-06-12T02:37:42.833Z,164
2018-06-12T02:38:52.555Z,184
2018-06-12T02:40:02.291Z,196
2018-06-12T02:41:12.012Z,220
2018-06-12T02:42:21.721Z,236
2018-06-12T02:43:31.707Z,260
2018-06-12T02:44:41.738Z,276
2018-06-12T02:45:51.738Z,300
2018-06-12T02:47:01.811Z,316
2018-06-12T02:48:11.803Z,332
2018-06-12T02:49:21.770Z,352
2018-06-12T02:50:31.486Z,376
2018-06-12T02:51:40.946Z,396
2018-06-12T02:52:50.916Z,428
2018-06-12T02:54:00.888Z,456
2018-06-12T02:55:10.598Z,480
2018-06-12T02:56:20.137Z,508
2018-06-12T02:57:29.604Z,540
2018-06-12T02:58:39.592Z,572
2018-06-12T02:59:49.045Z,600
2018-06-12T03:00:58.504Z,616
2018-06-12T03:02:08.204Z,652
2018-06-12T03:03:17.915Z,696
2018-06-12T03:04:27.635Z,724
2018-06-12T03:05:37.354Z,768
2018-06-12T03:06:47.321Z,824
2018-06-12T03:07:57.292Z,872
2018-06-12T03:09:07.005Z,920
2018-06-12T03:10:16.733Z,996
2018-06-12T03:11:26.713Z,1072
2018-06-12T03:12:36.459Z,1116
2018-06-12T03:13:46.173Z,1164
2018-06-12T03:14:56.146Z,1228
2018-06-12T03:16:06.131Z,1300
2018-06-12T03:17:16.102Z,1384
2018-06-12T03:18:26.066Z,1444
2018-06-12T03:19:36.085Z,1500
2018-06-12T03:20:46.057Z,1592
2018-06-12T03:21:56.021Z,1696
2018-06-12T03:23:05.983Z,1772
2018-06-12T03:24:15.694Z,1836
2018-06-12T03:25:25.676Z,1872
2018-06-12T03:26:35.386Z,1924
2018-06-12T03:27:45.355Z,1952
2018-06-12T03:28:55.319Z,1964
2018-06-12T03:30:05.299Z,2012
2018-06-12T03:31:15.293Z,2080
2018-06-12T03:32:25.264Z,2164
2018-06-12T03:33:34.969Z,2256
2018-06-12T03:34:44.947Z,2328
2018-06-12T03:35:54.691Z,2412
2018-06-12T03:37:04.392Z,2512
2018-06-12T03:38:14.396Z,2628
2018-06-12T03:39:24.413Z,2808
2018-06-12T03:40:34.118Z,2920
2018-06-12T03:41:44.082Z,2856
2018-06-12T03:42:54.053Z,2916
2018-06-12T03:44:03.751Z,2976
2018-06-12T03:45:13.944Z,3052
2018-06-12T03:46:23.653Z,3148
2018-06-12T03:47:33.624Z,3244
2018-06-12T03:48:43.599Z,3308
2018-06-12T03:49:53.573Z,3380
2018-06-12T03:51:03.555Z,3464
2018-06-12T03:52:13.531Z,3528
2018-06-12T03:53:23.240Z,3612
2018-06-12T03:54:32.946Z,3692
2018-06-12T03:55:42.664Z,3788
2018-06-12T03:56:52.391Z,3888
2018-06-12T03:58:02.364Z,3984
2018-06-12T03:59:12.335Z,4068
2018-06-12T04:00:22.301Z,4136
2018-06-12T04:01:32.014Z,4188
2018-06-12T04:02:41.978Z,4264
2018-06-12T04:03:51.455Z,4364
2018-06-12T04:05:01.166Z,4488
2018-06-12T04:06:10.877Z,4620
2018-06-12T04:07:20.608Z,4760
2018-06-12T04:08:30.574Z,4916
2018-06-12T04:09:40.555Z,5072
2018-06-12T04:10:50.529Z,5204
2018-06-12T04:12:00.496Z,5324
2018-06-12T04:13:10.481Z,5440
2018-06-12T04:14:20.459Z,5520
2018-06-12T04:15:30.177Z,5596
2018-06-12T04:16:40.154Z,5648
2018-06-12T04:17:49.854Z,5668
2018-06-12T04:18:59.564Z,5732
2018-06-12T04:20:09.536Z,5852
2018-06-12T04:21:19.500Z,5972
2018-06-12T04:22:29.466Z,6024
2018-06-12T04:23:39.423Z,6040
2018-06-12T04:24:49.381Z,6076
2018-06-12T04:25:59.357Z,6144
2018-06-12T04:27:09.334Z,6228
2018-06-12T04:28:19.298Z,6340
2018-06-12T04:29:29.262Z,6500
2018-06-12T04:30:39.232Z,6684
2018-06-12T04:31:49.202Z,6864
2018-06-12T04:32:58.917Z,7008
2018-06-12T04:34:08.880Z,7164
2018-06-12T04:35:18.600Z,7312
2018-06-12T04:36:28.317Z,7416
2018-06-12T04:37:38.281Z,7560
2018-06-12T04:38:47.999Z,7660
2018-06-12T04:39:57.971Z,7832
2018-06-12T04:41:07.679Z,8012
2018-06-12T04:42:17.390Z,8160
2018-06-12T04:43:27.296Z,8244
2018-06-12T04:44:37.057Z,8236
2018-06-12T04:45:47.031Z,8196
2018-06-12T04:46:56.999Z,8268
2018-06-12T04:48:06.988Z,8376
2018-06-12T04:49:16.945Z,8432
2018-06-12T04:50:26.907Z,8432
2018-06-12T04:51:36.885Z,8412
2018-06-12T04:52:46.864Z,8424
2018-06-12T04:53:56.574Z,8520
2018-06-12T04:55:06.280Z,8676
2018-06-12T04:56:16.245Z,8864
2018-06-12T04:57:25.965Z,9040
2018-06-12T04:58:35.682Z,9148
2018-06-12T04:59:45.658Z,9212
2018-06-12T05:00:55.645Z,9288
2018-06-12T05:02:05.627Z,9424
2018-06-12T05:03:15.611Z,9644
2018-06-12T05:04:25.585Z,9896
2018-06-12T05:05:35.567Z,10152
2018-06-12T05:06:45.293Z,10368
2018-06-12T05:07:55.267Z,10576
2018-06-12T05:09:05.227Z,10792
2018-06-12T05:10:14.951Z,11016
2018-06-12T05:11:24.926Z,11244
2018-06-12T05:12:34.643Z,11404
2018-06-12T05:13:44.633Z,11544
2018-06-12T05:14:54.607Z,11664
2018-06-12T05:16:04.569Z,11788
2018-06-12T05:17:14.547Z,11892
2018-06-12T05:18:24.508Z,11976
2018-06-12T05:19:34.221Z,12068
2018-06-12T05:20:44.297Z,12184
2018-06-12T05:21:54.267Z,12336
2018-06-12T05:23:04.248Z,12460
2018-06-12T05:24:14.207Z,12608
2018-06-12T05:25:24.169Z,12772
2018-06-12T05:26:33.915Z,12960
2018-06-12T05:27:43.880Z,13144
2018-06-12T05:28:53.839Z,13304
2018-06-12T05:30:03.812Z,13464
2018-06-12T05:31:13.682Z,13588
2018-06-12T05:32:23.408Z,13700
2018-06-12T05:33:32.890Z,13752
2018-06-12T05:34:42.873Z,13796
2018-06-12T05:35:52.842Z,13864
2018-06-12T05:37:02.554Z,13944
2018-06-12T05:38:12.561Z,13988
2018-06-12T05:39:22.535Z,14008
2018-06-12T05:40:32.512Z,13996
2018-06-12T05:41:42.268Z,13988
2018-06-12T05:42:52.253Z,13972
2018-06-12T05:44:02.230Z,13956
2018-06-12T05:45:11.684Z,13872
2018-06-12T05:46:21.675Z,13768
2018-06-12T05:47:31.651Z,13704
2018-06-12T05:48:41.630Z,13708
2018-06-12T05:49:51.600Z,13956
2018-06-12T05:51:01.328Z,13912
2018-06-12T05:52:11.035Z,13824
2018-06-12T05:53:21.008Z,13756
2018-06-12T05:54:30.477Z,13744
2018-06-12T05:55:40.240Z,13824
2018-06-12T05:56:50.283Z,13712
2018-06-12T05:57:59.993Z,13400
2018-06-12T05:59:09.981Z,13460
2018-06-12T06:00:19.710Z,13660
2018-06-12T06:01:29.809Z,13644
2018-06-12T06:02:39.778Z,13628
2018-06-12T06:03:49.475Z,14332
2018-06-12T06:04:59.194Z,14632
2018-06-12T06:06:08.642Z,15044
2018-06-12T06:07:18.100Z,15776
2018-06-12T06:08:28.064Z,16904
2018-06-12T06:09:38.032Z,17040
2018-06-12T06:10:48.112Z,17068
2018-06-12T06:11:58.085Z,16636
2018-06-12T06:13:08.068Z,15940
2018-06-12T06:14:18.037Z,15316
2018-06-12T06:15:27.761Z,14688
2018-06-12T06:16:37.752Z,14668
2018-06-12T06:17:47.480Z,14068
2018-06-12T06:18:57.471Z,13924
2018-06-12T06:20:07.479Z,14548
2018-06-12T06:21:17.467Z,14820
2018-06-12T06:22:27.262Z,14948
2018-06-12T06:23:36.400Z,14440
2018-06-12T06:24:46.398Z,14252
2018-06-12T06:25:56.369Z,15188
2018-06-12T06:27:06.105Z,16644
2018-06-12T06:28:16.084Z,16700
2018-06-12T06:29:26.088Z,17080
2018-06-12T06:30:35.800Z,17340
2018-06-12T06:31:45.770Z,17824
2018-06-12T06:32:55.748Z,17952
2018-06-12T06:34:05.740Z,19104
2018-06-12T06:35:15.465Z,18688
2018-06-12T06:36:25.625Z,18496
2018-06-12T06:37:35.354Z,19168
2018-06-12T06:38:45.330Z,20896
2018-06-12T06:39:55.570Z,21696
2018-06-12T06:41:05.548Z,19808
2018-06-12T06:42:15.262Z,19040
2018-06-12T06:43:25.242Z,18624
2018-06-12T06:44:35.222Z,20768
2018-06-12T06:45:44.942Z,21472
2018-06-12T06:46:54.653Z,21024
2018-06-12T06:48:04.113Z,21248
2018-06-12T06:49:13.301Z,22816
2018-06-12T06:50:23.272Z,22752
2018-06-12T06:51:32.994Z,23968
2018-06-12T06:52:42.718Z,25184
2018-06-12T06:53:52.725Z,25728
2018-06-12T06:55:02.710Z,25440
2018-06-12T06:56:12.687Z,24288
2018-06-12T06:57:22.667Z,22720
2018-06-12T06:58:32.644Z,21408
2018-06-12T06:59:42.387Z,19936
2018-06-12T07:00:52.722Z,18336
2018-06-12T07:02:02.455Z,17088
2018-06-12T07:03:11.907Z,18144
2018-06-12T07:04:21.634Z,19392
2018-06-12T07:05:31.613Z,20704
2018-06-12T07:06:41.604Z,20928
2018-06-12T07:07:51.348Z,19360
2018-06-12T07:09:01.433Z,18240
2018-06-12T07:10:11.488Z,18208
2018-06-12T07:11:21.471Z,19520
2018-06-12T07:12:31.195Z,20800
2018-06-12T07:13:41.403Z,20832
2018-06-12T07:14:51.681Z,19744
2018-06-12T07:16:01.818Z,18752
2018-06-12T07:17:11.835Z,18656
2018-06-12T07:18:21.830Z,19168
2018-06-12T07:19:31.552Z,18752
2018-06-12T07:20:41.556Z,17328
2018-06-12T07:21:51.527Z,16416
2018-06-12T07:23:01.510Z,15824
2018-06-12T07:24:11.500Z,15392
2018-06-12T07:25:20.985Z,15788
2018-06-12T07:26:30.734Z,17048
2018-06-12T07:27:40.714Z,18720
2018-06-12T07:28:50.691Z,21120
2018-06-12T07:30:00.418Z,22688
2018-06-12T07:31:10.512Z,25344
2018-06-12T07:32:20.091Z,27648
2018-06-12T07:33:29.621Z,30240
2018-06-12T07:34:39.592Z,32704
2018-06-12T07:35:49.585Z,32896
2018-06-12T07:36:59.044Z,32160
2018-06-12T07:38:08.764Z,31712
2018-06-12T07:39:18.758Z,30432
2018-06-12T07:40:28.755Z,29536
2018-06-12T07:41:38.721Z,30624
2018-06-12T07:42:48.717Z,30816
2018-06-12T07:43:58.693Z,30976
2018-06-12T07:45:08.689Z,29952
2018-06-12T07:46:18.658Z,29952
2018-06-12T07:47:28.627Z,29632
2018-06-12T07:48:38.611Z,31328
2018-06-12T07:49:48.576Z,32096
2018-06-12T07:50:58.315Z,33280
2018-06-12T07:52:08.322Z,33824
2018-06-12T07:53:18.312Z,33440
2018-06-12T07:54:28.036Z,33152
2018-06-12T07:55:37.770Z,32352
2018-06-12T07:56:47.760Z,31392
2018-06-12T07:57:57.743Z,29536
2018-06-12T07:59:07.721Z,26400
2018-06-12T08:00:17.728Z,26464
2018-06-12T08:01:27.481Z,27136
2018-06-12T08:02:37.473Z,26208
2018-06-12T08:03:47.443Z,23936
2018-06-12T08:04:57.435Z,21056
2018-06-12T08:06:07.147Z,17404
2018-06-12T08:07:16.868Z,17184
2018-06-12T08:08:26.864Z,17872
2018-06-12T08:09:36.642Z,18688
2018-06-12T08:10:46.627Z,19008
2018-06-12T08:11:56.077Z,19584
2018-06-12T08:13:06.301Z,20576
2018-06-12T08:14:16.691Z,21856
2018-06-12T08:15:26.672Z,21600
2018-06-12T08:16:36.695Z,20960
2018-06-12T08:17:46.450Z,20288
2018-06-12T08:18:56.437Z,21312
2018-06-12T08:20:06.440Z,22208
2018-06-12T08:21:16.463Z,23488
2018-06-12T08:22:26.437Z,23936
2018-06-12T08:23:36.415Z,23744
2018-06-12T08:24:46.179Z,24928
2018-06-12T08:25:56.160Z,26400
2018-06-12T08:27:06.191Z,26592
2018-06-12T08:28:16.227Z,25248
2018-06-12T08:29:26.197Z,23552
2018-06-12T08:30:36.406Z,21216
2018-06-12T08:31:46.228Z,22240
2018-06-12T08:32:56.216Z,23008
2018-06-12T08:34:06.201Z,40800
2018-06-12T08:35:16.181Z,62048
2018-06-12T08:36:25.917Z,67168
2018-06-12T08:37:35.943Z,68128
2018-06-12T08:38:45.939Z,61632
2018-06-12T08:39:56.090Z,64256
2018-06-12T08:41:06.363Z,61440
2018-06-12T08:42:16.374Z,61952
2018-06-12T08:43:26.112Z,33600
2018-06-12T08:44:36.090Z,70592
2018-06-12T08:45:46.080Z,47488
2018-06-12T08:46:55.810Z,33056
2018-06-12T08:48:05.830Z,35040
2018-06-12T08:49:15.599Z,40192
2018-06-12T08:50:25.360Z,41920
2018-06-12T08:51:35.353Z,42432
2018-06-12T08:52:45.347Z,46016
2018-06-12T08:53:55.350Z,41024
2018-06-12T08:55:05.365Z,43040
2018-06-12T08:56:15.345Z,51360
2018-06-12T08:57:25.341Z,51072
2018-06-12T08:58:35.335Z,33408
2018-06-12T08:59:45.371Z,30560
2018-06-12T09:00:55.102Z,30464
2018-06-12T09:02:04.844Z,34400
2018-06-12T09:03:14.579Z,41824
2018-06-12T09:04:24.648Z,54400
2018-06-12T09:05:34.367Z,43712
2018-06-12T09:06:44.093Z,41632
2018-06-12T09:07:54.201Z,42912
2018-06-12T09:09:04.197Z,42528
2018-06-12T09:10:14.195Z,43392
2018-06-12T09:11:24.198Z,39424
2018-06-12T09:12:33.922Z,37952
2018-06-12T09:13:43.915Z,37728
2018-06-12T09:14:53.887Z,37280
2018-06-12T09:16:03.865Z,37856
2018-06-12T09:17:13.845Z,39872
2018-06-12T09:18:23.829Z,43456
2018-06-12T09:19:33.815Z,40608
2018-06-12T09:20:43.532Z,39296
2018-06-12T09:21:53.498Z,48064
2018-06-12T09:23:03.211Z,42048
2018-06-12T09:24:13.190Z,62496
2018-06-12T09:25:22.922Z,101088
2018-06-12T09:26:32.653Z,97056
2018-06-12T09:27:42.637Z,46688
2018-06-12T09:28:52.678Z,93024
2018-06-12T09:30:02.446Z,50016
2018-06-12T09:31:12.180Z,55648
2018-06-12T09:32:22.174Z,44192
2018-06-12T09:33:31.903Z,41952
2018-06-12T09:34:41.884Z,40736
2018-06-12T09:35:51.885Z,49056
2018-06-12T09:37:01.943Z,85088
2018-06-12T09:38:11.997Z,94592
2018-06-12T09:39:21.972Z,99808
2018-06-12T09:40:31.979Z,55264
2018-06-12T09:41:41.727Z,68320
2018-06-12T09:42:51.722Z,53472
2018-06-12T09:44:01.731Z,65248
2018-06-12T09:45:11.736Z,98016
2018-06-12T09:46:21.735Z,96096
2018-06-12T09:47:31.744Z,93760
2018-06-12T09:48:41.554Z,93056
2018-06-12T09:49:51.620Z,97504
2018-06-12T09:51:01.673Z,97440
2018-06-12T09:52:11.662Z,35136
2018-06-12T09:53:22.038Z,106592
2018-06-12T09:54:31.779Z,97792
2018-06-12T09:55:41.784Z,95904
2018-06-12T09:56:51.787Z,96608
2018-06-12T09:58:01.776Z,95200
2018-06-12T09:59:11.879Z,96864
2018-06-12T10:00:21.344Z,98240
2018-06-12T10:01:31.381Z,99136
2018-06-12T10:02:41.415Z,101536
2018-06-12T10:03:51.443Z,104000
2018-06-12T10:05:01.432Z,104352
2018-06-12T10:06:11.189Z,109760
2018-06-12T10:07:21.188Z,116960
2018-06-12T10:08:31.214Z,122720
2018-06-12T10:09:40.967Z,73568
2018-06-12T10:10:50.697Z,113856
2018-06-12T10:12:00.465Z,118784
2018-06-12T10:13:10.459Z,94112
2018-06-12T10:14:20.487Z,73184
2018-06-12T10:15:30.297Z,54240
2018-06-12T10:16:40.319Z,55296
2018-06-12T10:17:50.319Z,54688
2018-06-12T10:19:00.614Z,70752
2018-06-12T10:20:10.396Z,81120
2018-06-12T10:21:20.432Z,76480
2018-06-12T10:22:30.410Z,54272
2018-06-12T10:23:40.457Z,51232
2018-06-12T10:24:50.454Z,54272
2018-06-12T10:26:00.284Z,66976
2018-06-12T10:27:10.092Z,65056
2018-06-12T10:28:20.096Z,71872
2018-06-12T10:29:30.115Z,59712
2018-06-12T10:30:40.105Z,75712
2018-06-12T10:31:50.208Z,85760
2018-06-12T10:33:00.248Z,81696
2018-06-12T10:34:10.332Z,64832
2018-06-12T10:35:20.166Z,53312
2018-06-12T10:36:30.166Z,49056
2018-06-12T10:37:39.964Z,44896
2018-06-12T10:38:49.736Z,54528
2018-06-12T10:39:59.235Z,70496
2018-06-12T10:41:09.024Z,57024
2018-06-12T10:42:18.775Z,62080
2018-06-12T10:43:28.773Z,62624
2018-06-12T10:44:38.547Z,51008
2018-06-12T10:45:48.292Z,49504
2018-06-12T10:46:58.301Z,74400
2018-06-12T10:48:08.042Z,120896
2018-06-12T10:49:18.041Z,126176
2018-06-12T10:50:28.062Z,114944
2018-06-12T10:51:38.065Z,87840
2018-06-12T10:52:48.113Z,61184
2018-06-12T10:53:58.104Z,88832
2018-06-12T10:55:08.108Z,61248
2018-06-12T10:56:18.108Z,51744
2018-06-12T10:57:28.103Z,58208
2018-06-12T10:58:37.906Z,119392
2018-06-12T10:59:47.773Z,59488
2018-06-12T11:00:57.763Z,69504
2018-06-12T11:02:07.787Z,78016
2018-06-12T11:03:17.811Z,111392
2018-06-12T11:04:27.808Z,55872
2018-06-12T11:05:37.795Z,60160
2018-06-12T11:06:47.799Z,59040
2018-06-12T11:07:57.512Z,141696
2018-06-12T11:09:06.997Z,140064
2018-06-12T11:10:16.984Z,99296
2018-06-12T11:11:26.987Z,62304
2018-06-12T11:12:37.023Z,126368
2018-06-12T11:13:47.011Z,134432
2018-06-12T11:14:56.998Z,64832
2018-06-12T11:16:06.737Z,50816
2018-06-12T11:17:16.462Z,130816
2018-06-12T11:18:26.445Z,142592
2018-06-12T11:19:36.170Z,57088
2018-06-12T11:20:46.264Z,58848
2018-06-12T11:21:56.357Z,98272
2018-06-12T11:23:06.345Z,137568
2018-06-12T11:24:16.342Z,129024
2018-06-12T11:25:26.314Z,125760
2018-06-12T11:26:36.284Z,130336
2018-06-12T11:27:46.273Z,117984
2018-06-12T11:28:56.036Z,100896
2018-06-12T11:30:06.044Z,127840
2018-06-12T11:31:16.038Z,131680
2018-06-12T11:32:25.767Z,134912
2018-06-12T11:33:35.530Z,117056
2018-06-12T11:34:45.570Z,114624
2018-06-12T11:35:55.291Z,102976
2018-06-12T11:37:05.303Z,105920
2018-06-12T11:38:15.024Z,118688
2018-06-12T11:39:24.995Z,131328
2018-06-12T11:40:34.725Z,133536
2018-06-12T11:41:44.727Z,98528
2018-06-12T11:42:54.705Z,131616
2018-06-12T11:44:04.170Z,126400
2018-06-12T11:45:13.915Z,127744
2018-06-12T11:46:23.644Z,134208
2018-06-12T11:47:33.645Z,137184
2018-06-12T11:48:43.393Z,134784
2018-06-12T11:49:53.400Z,135392
2018-06-12T11:51:03.656Z,137088
2018-06-12T11:52:13.819Z,133344
2018-06-12T11:53:23.846Z,134496
2018-06-12T11:54:33.846Z,139392
2018-06-12T11:55:43.846Z,144480
2018-06-12T11:56:53.850Z,149888
2018-06-12T11:58:03.847Z,136640
2018-06-12T11:59:13.841Z,144992
2018-06-12T12:00:23.861Z,121248
2018-06-12T12:01:33.832Z,129248
2018-06-12T12:02:43.558Z,116000
2018-06-12T12:03:53.545Z,102112
2018-06-12T12:05:03.272Z,154272
2018-06-12T12:06:13.293Z,141920
2018-06-12T12:07:23.317Z,115776
2018-06-12T12:08:33.077Z,98432
2018-06-12T12:09:43.102Z,107200
2018-06-12T12:10:52.850Z,119488
2018-06-12T12:12:02.836Z,102848
2018-06-12T12:13:12.305Z,111072
2018-06-12T12:14:22.059Z,123552
2018-06-12T12:15:31.799Z,112416
2018-06-12T12:16:41.530Z,97600
2018-06-12T12:17:51.278Z,106336
2018-06-12T12:19:00.745Z,93120
2018-06-12T12:20:10.750Z,143392
2018-06-12T12:21:20.524Z,126784
2018-06-12T12:22:30.260Z,123808
2018-06-12T12:23:40.292Z,131488
2018-06-12T12:24:50.321Z,132288
2018-06-12T12:26:00.320Z,131520
2018-06-12T12:27:10.288Z,134848
2018-06-12T12:28:20.280Z,138336
2018-06-12T12:29:30.256Z,137888
2018-06-12T12:30:40.244Z,130112
2018-06-12T12:31:50.264Z,129664
2018-06-12T12:32:59.982Z,136064
2018-06-12T12:34:09.974Z,130816
2018-06-12T12:35:19.693Z,129120
2018-06-12T12:36:29.675Z,136064
2018-06-12T12:37:39.666Z,136480
2018-06-12T12:38:49.410Z,130720
2018-06-12T12:39:59.398Z,131360
2018-06-12T12:41:09.413Z,133632
2018-06-12T12:42:19.419Z,133760
2018-06-12T12:43:29.155Z,132992
2018-06-12T12:44:38.630Z,133696
2018-06-12T12:45:48.353Z,138208
2018-06-12T12:46:58.318Z,142816
2018-06-12T12:48:08.057Z,136544
2018-06-12T12:49:17.791Z,79104
2018-06-12T12:50:27.806Z,46784
2018-06-12T12:51:37.290Z,145216
2018-06-12T12:52:47.262Z,141120
2018-06-12T12:53:57.254Z,137184
2018-06-12T12:55:07.252Z,134368
2018-06-12T12:56:17.300Z,136064
2018-06-12T12:57:27.295Z,135904
2018-06-12T12:58:37.264Z,133536
2018-06-12T12:59:47.300Z,135072
2018-06-12T13:00:57.345Z,141440
2018-06-12T13:02:07.339Z,133568
2018-06-12T13:03:17.312Z,130976
2018-06-12T13:04:27.302Z,138816
2018-06-12T13:05:37.305Z,125216
2018-06-12T13:06:47.283Z,119904
2018-06-12T13:07:57.278Z,72000
2018-06-12T13:09:06.755Z,132960
2018-06-12T13:10:16.731Z,135712
2018-06-12T13:11:26.470Z,118880
2018-06-12T13:12:36.203Z,123520
2018-06-12T13:13:45.925Z,133344
2018-06-12T13:14:55.666Z,131680
2018-06-12T13:16:05.649Z,131360
2018-06-12T13:17:15.630Z,134848
2018-06-12T13:18:25.613Z,135104
2018-06-12T13:19:35.343Z,132416
2018-06-12T13:20:45.063Z,140640
2018-06-12T13:21:55.054Z,139456
2018-06-12T13:23:05.057Z,124512
2018-06-12T13:24:14.773Z,134496
2018-06-12T13:25:24.751Z,139872
2018-06-12T13:26:34.767Z,128480
2018-06-12T13:27:44.829Z,117024
2018-06-12T13:28:54.848Z,102112
2018-06-12T13:30:04.859Z,102656
2018-06-12T13:31:14.590Z,91360
2018-06-12T13:32:24.056Z,143712
2018-06-12T13:33:33.903Z,105600
2018-06-12T13:34:44.004Z,111104
2018-06-12T13:35:53.744Z,119168
2018-06-12T13:37:03.732Z,117472
2018-06-12T13:38:13.511Z,143520
2018-06-12T13:39:23.499Z,135648
2018-06-12T13:40:32.984Z,137056
2018-06-12T13:41:42.448Z,132480
2018-06-12T13:42:52.179Z,125472
2018-06-12T13:44:01.908Z,141056
2018-06-12T13:45:11.650Z,133568
2018-06-12T13:46:21.635Z,138976
2018-06-12T13:47:31.657Z,136384
2018-06-12T13:48:41.645Z,129344
2018-06-12T13:49:51.640Z,128832
2018-06-12T13:51:01.613Z,134400
2018-06-12T13:52:11.337Z,132608
2018-06-12T13:53:21.316Z,106784
2018-06-12T13:54:31.303Z,98688
2018-06-12T13:55:41.025Z,136320
2018-06-12T13:56:51.032Z,131680
2018-06-12T13:58:01.024Z,126304
2018-06-12T13:59:10.487Z,132512
2018-06-12T14:00:20.220Z,141824
2018-06-12T14:01:30.194Z,133760
2018-06-12T14:02:40.175Z,132960
2018-06-12T14:03:49.909Z,134752
2018-06-12T14:04:59.638Z,116448
2018-06-12T14:06:09.639Z,124928
2018-06-12T14:07:19.363Z,139008
2018-06-12T14:08:29.362Z,128064
2018-06-12T14:09:39.350Z,137696
2018-06-12T14:10:49.355Z,135328
2018-06-12T14:11:59.346Z,127680
2018-06-12T14:13:09.353Z,133152
2018-06-12T14:14:19.082Z,133216
2018-06-12T14:15:29.064Z,131616
2018-06-12T14:16:39.064Z,134720
2018-06-12T14:17:49.067Z,136864
2018-06-12T14:18:59.060Z,139168
2018-06-12T14:20:09.064Z,135392
2018-06-12T14:21:19.073Z,132672
2018-06-12T14:22:29.057Z,138464
2018-06-12T14:23:38.541Z,128384
2018-06-12T14:24:48.276Z,128704
2018-06-12T14:25:58.267Z,133504
2018-06-12T14:27:08.278Z,137824
2018-06-12T14:28:18.583Z,135360
2018-06-12T14:29:28.594Z,127424
2018-06-12T14:30:38.589Z,132704
2018-06-12T14:31:48.564Z,130848
2018-06-12T14:32:58.295Z,128256
2018-06-12T14:34:08.290Z,131392
2018-06-12T14:35:18.016Z,133984
2018-06-12T14:36:28.023Z,135968
2018-06-12T14:37:38.017Z,135168
2018-06-12T14:38:47.995Z,135840
2018-06-12T14:39:57.976Z,85664
2018-06-12T14:41:07.725Z,111808
2018-06-12T14:42:17.705Z,82816
2018-06-12T14:43:27.702Z,72192
2018-06-12T14:44:37.691Z,59712
2018-06-12T14:45:47.919Z,64256
2018-06-12T14:46:57.647Z,63968
2018-06-12T14:48:07.658Z,64640
2018-06-12T14:49:17.665Z,77824
2018-06-12T14:50:27.664Z,55904
2018-06-12T14:51:37.700Z,73024
2018-06-12T14:52:47.427Z,83808
2018-06-12T14:53:57.412Z,69920
2018-06-12T14:55:07.643Z,70016
2018-06-12T14:56:17.631Z,60640
2018-06-12T14:57:27.638Z,91232
2018-06-12T14:58:37.616Z,109152
2018-06-12T14:59:47.611Z,107520
2018-06-12T15:00:57.607Z,125248
2018-06-12T15:02:07.324Z,115808
2018-06-12T15:03:17.320Z,109056
2018-06-12T15:04:27.056Z,111328
2018-06-12T15:05:37.050Z,108512
2018-06-12T15:06:46.534Z,114816
2018-06-12T15:07:56.540Z,109632
2018-06-12T15:09:06.051Z,109984
2018-06-12T15:10:16.072Z,110944
2018-06-12T15:11:25.813Z,114496
2018-06-12T15:12:35.858Z,95008
2018-06-12T15:13:45.575Z,105568
2018-06-12T15:14:55.614Z,112384
2018-06-12T15:16:05.624Z,109440
2018-06-12T15:17:15.412Z,108448